createdAt,value
2022-09-07T00:00:16.604Z,99559.22
2022-09-07T00:00:48.104Z,99558.44
2022-09-07T00:01:19.650Z,99560.03
2022-09-07T00:01:51.114Z,99561.97
2022-09-07T00:02:22.581Z,99570.19
2022-09-07T00:02:54.320Z,99570.19
2022-09-07T00:03:25.934Z,99574.06
2022-09-07T00:03:57.610Z,99574.88
2022-09-07T00:04:29.252Z,99585.81
2022-09-07T00:05:00.771Z,99589.38
2022-09-07T00:05:34.764Z,99593.56
2022-09-07T00:06:06.180Z,99594.38
2022-09-07T00:06:37.679Z,99608.38
2022-09-07T00:07:09.154Z,99642.56
2022-09-07T00:07:40.630Z,99678.19
2022-09-07T00:08:12.091Z,99702.34
2022-09-07T00:08:43.541Z,99709.44
2022-09-07T00:09:15.069Z,99712.81
2022-09-07T00:09:46.538Z,99710.41
2022-09-07T00:10:18.014Z,99723.28
2022-09-07T00:10:49.468Z,99715.88
2022-09-07T00:11:20.926Z,99731.19
2022-09-07T00:11:52.383Z,99736.69
2022-09-07T00:12:23.880Z,99727.00
2022-09-07T00:12:55.312Z,99758.91
2022-09-07T00:13:26.781Z,99732.31
2022-09-07T00:13:58.302Z,99733.63
2022-09-07T00:14:29.850Z,99748.94
2022-09-07T00:15:01.295Z,99752.00
2022-09-07T00:15:32.750Z,99758.59
2022-09-07T00:16:04.311Z,99751.50
2022-09-07T00:16:35.929Z,99757.16
2022-09-07T00:17:07.516Z,99757.97
2022-09-07T00:17:39.036Z,99756.97
2022-09-07T00:18:10.490Z,99754.56
2022-09-07T00:18:45.855Z,99759.00
2022-09-07T00:19:17.824Z,99755.66
2022-09-07T00:19:49.347Z,99745.81
2022-09-07T00:20:20.817Z,99755.66
2022-09-07T00:20:52.282Z,99753.44
2022-09-07T00:21:23.710Z,99763.88
2022-09-07T00:21:55.159Z,99762.25
2022-09-07T00:22:26.656Z,99765.63
2022-09-07T00:22:58.178Z,99766.75
2022-09-07T00:23:29.618Z,99765.94
2022-09-07T00:24:01.193Z,99772.53
2022-09-07T00:24:32.682Z,99763.50
2022-09-07T00:25:04.103Z,99764.00
2022-09-07T00:25:35.633Z,99766.75
2022-09-07T00:26:07.120Z,99767.88
2022-09-07T00:26:38.632Z,99774.78
2022-09-07T00:27:10.081Z,99776.72
2022-09-07T00:27:41.604Z,99777.50
2022-09-07T00:28:13.101Z,99779.44
2022-09-07T00:28:44.552Z,99790.09
2022-09-07T00:29:15.977Z,99783.81
2022-09-07T00:29:47.452Z,99786.84
2022-09-07T00:30:19.071Z,99784.94
2022-09-07T00:30:50.482Z,99777.81
2022-09-07T00:31:22.104Z,99778.94
2022-09-07T00:31:53.784Z,99772.34
2022-09-07T00:32:25.330Z,99772.66
2022-09-07T00:32:56.757Z,99771.22
2022-09-07T00:33:28.224Z,99784.63
2022-09-07T00:33:59.699Z,99786.53
2022-09-07T00:34:31.138Z,99785.72
2022-09-07T00:35:02.634Z,99783.50
2022-09-07T00:35:34.114Z,99795.56
2022-09-07T00:36:05.589Z,99785.41
2022-09-07T00:36:37.560Z,99794.75
2022-09-07T00:37:09.023Z,99787.53
2022-09-07T00:37:40.458Z,99792.69
2022-09-07T00:38:12.000Z,99810.56
2022-09-07T00:38:43.434Z,99793.50
2022-09-07T00:39:14.899Z,99795.75
2022-09-07T00:39:46.409Z,99795.06
2022-09-07T00:40:17.897Z,99798.94
2022-09-07T00:40:49.349Z,99794.88
2022-09-07T00:41:20.837Z,99793.78
2022-09-07T00:41:52.389Z,99792.16
2022-09-07T00:42:23.865Z,99792.78
2022-09-07T00:42:55.559Z,99798.25
2022-09-07T00:43:27.071Z,99793.91
2022-09-07T00:43:58.530Z,99800.50
2022-09-07T00:44:30.003Z,99784.88
2022-09-07T00:45:01.507Z,99810.66
2022-09-07T00:45:32.984Z,99800.81
2022-09-07T00:46:04.481Z,99805.97
2022-09-07T00:46:36.123Z,99806.28
2022-09-07T00:47:07.726Z,99807.91
2022-09-07T00:47:39.171Z,99817.25
2022-09-07T00:48:10.730Z,99812.88
2022-09-07T00:48:42.255Z,99812.06
2022-09-07T00:49:13.788Z,99812.88
2022-09-07T00:49:45.440Z,99810.16
2022-09-07T00:50:16.938Z,99815.94
2022-09-07T00:50:48.429Z,99811.75
2022-09-07T00:51:19.946Z,99812.56
2022-09-07T00:51:51.569Z,99801.94
2022-09-07T00:52:23.090Z,99804.34
2022-09-07T00:52:54.652Z,99807.09
2022-09-07T00:53:26.311Z,99808.72
2022-09-07T00:53:57.762Z,99802.44
2022-09-07T00:54:29.229Z,99807.41
2022-09-07T00:55:00.720Z,99798.56
2022-09-07T00:55:32.180Z,99806.78
2022-09-07T00:56:03.620Z,99808.72
2022-09-07T00:56:35.063Z,99804.84
2022-09-07T00:57:06.509Z,99793.91
2022-09-07T00:57:38.007Z,99798.88
2022-09-07T00:58:09.534Z,99804.97
2022-09-07T00:58:41.033Z,99799.50
2022-09-07T00:59:12.462Z,99813.19
2022-09-07T00:59:43.886Z,99805.47
2022-09-07T01:00:15.334Z,99814.50
2022-09-07T01:00:46.814Z,99806.91
2022-09-07T01:01:18.502Z,99809.34
2022-09-07T01:01:50.127Z,99808.22
2022-09-07T01:02:21.687Z,99805.47
2022-09-07T01:02:53.386Z,99798.38
2022-09-07T01:03:24.922Z,99802.75
2022-09-07T01:03:56.640Z,99797.75
2022-09-07T01:04:28.129Z,99796.13
2022-09-07T01:04:59.560Z,99789.53
2022-09-07T01:05:31.024Z,99801.63
2022-09-07T01:06:02.484Z,99791.78
2022-09-07T01:06:33.989Z,99795.34
2022-09-07T01:07:05.554Z,99795.03
2022-09-07T01:07:37.033Z,99794.53
2022-09-07T01:08:08.509Z,99796.63
2022-09-07T01:08:39.939Z,99784.06
2022-09-07T01:09:11.466Z,99780.19
2022-09-07T01:09:42.971Z,99789.53
2022-09-07T01:10:14.443Z,99783.25
2022-09-07T01:10:45.970Z,99776.97
2022-09-07T01:11:17.446Z,99778.09
2022-09-07T01:11:48.879Z,99778.91
2022-09-07T01:12:20.366Z,99775.34
2022-09-07T01:12:51.818Z,99780.81
2022-09-07T01:13:23.339Z,99769.38
2022-09-07T01:13:54.862Z,99772.63
2022-09-07T01:14:26.374Z,99777.59
2022-09-07T01:14:57.864Z,99784.69
2022-09-07T01:15:29.344Z,99781.44
2022-09-07T01:16:00.906Z,99785.00
2022-09-07T01:16:32.416Z,99785.31
2022-09-07T01:17:03.879Z,99784.81
2022-09-07T01:17:35.350Z,99782.88
2022-09-07T01:18:06.871Z,99783.38
2022-09-07T01:18:38.338Z,99778.53
2022-09-07T01:19:09.792Z,99779.34
2022-09-07T01:19:41.290Z,99785.00
2022-09-07T01:20:12.768Z,99775.16
2022-09-07T01:20:44.290Z,99792.41
2022-09-07T01:21:15.748Z,99784.50
2022-09-07T01:21:47.300Z,99785.63
2022-09-07T01:22:18.814Z,99782.88
2022-09-07T01:22:50.272Z,99779.84
2022-09-07T01:23:21.748Z,99782.88
2022-09-07T01:23:53.223Z,99781.25
2022-09-07T01:24:24.663Z,99785.31
2022-09-07T01:24:56.165Z,99781.75
2022-09-07T01:25:27.619Z,99781.25
2022-09-07T01:25:59.122Z,99790.78
2022-09-07T01:26:30.591Z,99784.50
2022-09-07T01:27:02.128Z,99785.13
2022-09-07T01:27:33.599Z,99782.38
2022-09-07T01:28:05.052Z,99791.41
2022-09-07T01:28:36.572Z,99788.38
2022-09-07T01:29:08.060Z,99791.72
2022-09-07T01:29:39.722Z,99795.28
2022-09-07T01:30:11.315Z,99796.88
2022-09-07T01:30:42.839Z,99791.09
2022-09-07T01:31:14.415Z,99800.13
2022-09-07T01:31:45.899Z,99797.38
2022-09-07T01:32:17.352Z,99796.56
2022-09-07T01:32:48.808Z,99794.66
2022-09-07T01:33:20.308Z,99797.69
2022-09-07T01:33:51.757Z,99795.78
2022-09-07T01:34:23.284Z,99806.72
2022-09-07T01:34:54.732Z,99803.19
2022-09-07T01:35:26.300Z,99800.75
2022-09-07T01:35:57.724Z,99800.75
2022-09-07T01:36:29.425Z,99806.22
2022-09-07T01:37:00.974Z,99807.84
2022-09-07T01:37:32.399Z,99803.19
2022-09-07T01:38:03.843Z,99805.41
2022-09-07T01:38:35.269Z,99799.94
2022-09-07T01:39:06.735Z,99804.59
2022-09-07T01:39:38.217Z,99804.31
2022-09-07T01:40:09.745Z,99801.88
2022-09-07T01:40:41.461Z,99803.50
2022-09-07T01:41:12.977Z,99800.75
2022-09-07T01:41:44.403Z,99792.53
2022-09-07T01:42:15.862Z,99804.47
2022-09-07T01:42:47.306Z,99798.81
2022-09-07T01:43:18.813Z,99799.63
2022-09-07T01:43:50.285Z,99799.63
2022-09-07T01:44:21.747Z,99797.69
2022-09-07T01:44:53.250Z,99796.09
2022-09-07T01:45:24.737Z,99800.44
2022-09-07T01:45:56.313Z,99797.19
2022-09-07T01:46:27.869Z,99805.41
2022-09-07T01:46:59.412Z,99810.09
2022-09-07T01:47:30.866Z,99803.50
2022-09-07T01:48:02.326Z,99803.03
2022-09-07T01:48:33.795Z,99808.50
2022-09-07T01:49:05.281Z,99809.28
2022-09-07T01:49:36.955Z,99801.41
2022-09-07T01:50:08.449Z,99807.69
2022-09-07T01:50:39.886Z,99795.94
2022-09-07T01:51:11.414Z,99794.63
2022-09-07T01:51:42.832Z,99791.06
2022-09-07T01:52:14.306Z,99791.06
2022-09-07T01:52:45.828Z,99788.84
2022-09-07T01:53:17.281Z,99782.53
2022-09-07T01:53:48.717Z,99787.22
2022-09-07T01:54:20.169Z,99778.69
2022-09-07T01:54:51.591Z,99784.47
2022-09-07T01:55:23.094Z,99786.72
2022-09-07T01:55:54.583Z,99788.34
2022-09-07T01:56:26.185Z,99784.47
2022-09-07T01:56:57.626Z,99786.41
2022-09-07T01:57:29.096Z,99787.22
2022-09-07T01:58:00.543Z,99789.47
2022-09-07T01:58:32.198Z,99788.03
2022-09-07T01:59:03.755Z,99787.22
2022-09-07T01:59:35.217Z,99791.06
2022-09-07T02:00:06.690Z,99778.50
2022-09-07T02:00:38.178Z,99774.16
2022-09-07T02:01:09.590Z,99774.16
2022-09-07T02:01:41.167Z,99779.63
2022-09-07T02:02:12.626Z,99758.03
2022-09-07T02:02:44.239Z,99758.03
2022-09-07T02:03:15.950Z,99756.09
2022-09-07T02:03:47.452Z,99745.16
2022-09-07T02:04:18.917Z,99746.75
2022-09-07T02:04:50.401Z,99743.22
2022-09-07T02:05:21.810Z,99738.84
2022-09-07T02:05:53.311Z,99742.41
2022-09-07T02:06:24.879Z,99740.28
2022-09-07T02:06:56.402Z,99742.41
2022-09-07T02:07:27.855Z,99742.41
2022-09-07T02:07:59.341Z,99738.56
2022-09-07T02:08:30.831Z,99728.72
2022-09-07T02:09:02.409Z,99724.03
2022-09-07T02:09:33.880Z,99718.88
2022-09-07T02:10:05.295Z,99721.63
2022-09-07T02:10:36.766Z,99711.66
2022-09-07T02:11:08.207Z,99709.22
2022-09-07T02:11:39.666Z,99703.75
2022-09-07T02:12:11.228Z,99701.81
2022-09-07T02:12:42.684Z,99705.06
2022-09-07T02:13:14.154Z,99705.06
2022-09-07T02:13:45.575Z,99711.34
2022-09-07T02:14:17.047Z,99706.69
2022-09-07T02:14:52.521Z,99697.66
2022-09-07T02:15:24.281Z,99701.69
2022-09-07T02:15:55.785Z,99699.28
2022-09-07T02:16:27.286Z,99701.69
2022-09-07T02:16:58.828Z,99708.75
2022-09-07T02:17:30.351Z,99712.31
2022-09-07T02:18:01.823Z,99719.72
2022-09-07T02:18:33.288Z,99715.38
2022-09-07T02:19:04.773Z,99726.34
2022-09-07T02:19:36.247Z,99729.84
2022-09-07T02:20:07.688Z,99736.94
2022-09-07T02:20:39.141Z,99734.06
2022-09-07T02:21:10.554Z,99735.19
2022-09-07T02:21:42.018Z,99735.19
2022-09-07T02:22:13.507Z,99729.72
2022-09-07T02:22:45.007Z,99729.22
2022-09-07T02:23:16.613Z,99720.19
2022-09-07T02:23:48.122Z,99718.25
2022-09-07T02:24:19.583Z,99710.84
2022-09-07T02:24:51.051Z,99714.41
2022-09-07T02:25:22.532Z,99708.91
2022-09-07T02:25:53.977Z,99711.66
2022-09-07T02:26:25.475Z,99707.00
2022-09-07T02:26:56.935Z,99694.09
2022-09-07T02:27:28.468Z,99695.72
2022-09-07T02:27:59.956Z,99694.09
2022-09-07T02:28:31.468Z,99696.84
2022-09-07T02:29:02.982Z,99687.19
2022-09-07T02:29:34.458Z,99680.09
2022-09-07T02:30:05.911Z,99678.97
2022-09-07T02:30:37.400Z,99680.56
2022-09-07T02:31:08.916Z,99673.16
2022-09-07T02:31:40.402Z,99673.16
2022-09-07T02:32:11.858Z,99673.97
2022-09-07T02:32:43.413Z,99667.38
2022-09-07T02:33:14.911Z,99668.50
2022-09-07T02:33:46.344Z,99669.28
2022-09-07T02:34:17.768Z,99664.63
2022-09-07T02:34:49.223Z,99663.81
2022-09-07T02:35:20.794Z,99666.25
2022-09-07T02:35:52.291Z,99665.75
2022-09-07T02:36:23.793Z,99666.56
2022-09-07T02:36:55.337Z,99664.63
2022-09-07T02:37:26.798Z,99660.28
2022-09-07T02:37:58.260Z,99662.19
2022-09-07T02:38:29.813Z,99666.88
2022-09-07T02:39:01.278Z,99657.88
2022-09-07T02:39:32.735Z,99659.81
2022-09-07T02:40:04.331Z,99658.66
2022-09-07T02:40:35.977Z,99649.66
2022-09-07T02:41:07.544Z,99653.19
2022-09-07T02:41:39.065Z,99649.31
2022-09-07T02:42:10.485Z,99649.31
2022-09-07T02:42:42.026Z,99652.88
2022-09-07T02:43:13.521Z,99643.03
2022-09-07T02:43:44.944Z,99648.50
2022-09-07T02:44:16.416Z,99641.91
2022-09-07T02:44:47.922Z,99643.53
2022-09-07T02:45:19.397Z,99651.25
2022-09-07T02:45:50.924Z,99649.31
2022-09-07T02:46:22.490Z,99644.66
2022-09-07T02:46:53.927Z,99650.13
2022-09-07T02:47:25.387Z,99651.25
2022-09-07T02:47:56.873Z,99642.72
2022-09-07T02:48:28.461Z,99643.03
2022-09-07T02:48:59.925Z,99639.19
2022-09-07T02:49:31.404Z,99640.78
2022-09-07T02:50:02.969Z,99634.81
2022-09-07T02:50:34.434Z,99630.97
2022-09-07T02:51:05.941Z,99630.97
2022-09-07T02:51:37.430Z,99626.28
2022-09-07T02:52:08.992Z,99631.75
2022-09-07T02:52:40.462Z,99620.00
2022-09-07T02:53:11.935Z,99621.94
2022-09-07T02:53:43.367Z,99618.38
2022-09-07T02:54:14.849Z,99619.53
2022-09-07T02:54:46.280Z,99623.88
2022-09-07T02:55:17.823Z,99619.19
2022-09-07T02:55:49.263Z,99622.28
2022-09-07T02:56:20.703Z,99609.72
2022-09-07T02:56:52.119Z,99609.72
2022-09-07T02:57:23.725Z,99612.44
2022-09-07T02:57:55.254Z,99609.72
2022-09-07T02:58:26.712Z,99608.09
2022-09-07T02:58:58.227Z,99620.66
2022-09-07T02:59:29.798Z,99609.22
2022-09-07T03:00:01.272Z,99600.19
2022-09-07T03:00:32.798Z,99606.47
2022-09-07T03:01:04.335Z,99608.41
2022-09-07T03:01:35.938Z,99598.59
2022-09-07T03:02:07.548Z,99596.66
2022-09-07T03:02:39.102Z,99605.34
2022-09-07T03:03:10.556Z,99596.34
2022-09-07T03:03:42.146Z,99599.38
2022-09-07T03:04:13.561Z,99604.56
2022-09-07T03:04:45.000Z,99597.16
2022-09-07T03:05:16.482Z,99600.69
2022-09-07T03:05:48.033Z,99591.50
2022-09-07T03:06:19.473Z,99590.84
2022-09-07T03:06:50.918Z,99593.59
2022-09-07T03:07:22.414Z,99580.72
2022-09-07T03:07:53.876Z,99582.66
2022-09-07T03:08:25.399Z,99582.66
2022-09-07T03:08:56.832Z,99584.56
2022-09-07T03:09:28.515Z,99585.06
2022-09-07T03:10:00.078Z,99579.91
2022-09-07T03:10:31.590Z,99576.84
2022-09-07T03:11:03.119Z,99571.38
2022-09-07T03:11:34.603Z,99575.72
2022-09-07T03:12:06.076Z,99568.63
2022-09-07T03:12:37.533Z,99566.72
2022-09-07T03:13:09.037Z,99574.13
2022-09-07T03:13:40.542Z,99572.19
2022-09-07T03:14:12.020Z,99573.00
2022-09-07T03:14:43.581Z,99573.75
2022-09-07T03:15:15.113Z,99568.28
2022-09-07T03:15:46.652Z,99571.84
2022-09-07T03:16:18.357Z,99574.56
2022-09-07T03:16:49.825Z,99569.44
2022-09-07T03:17:21.331Z,99568.63
2022-09-07T03:17:52.831Z,99569.91
2022-09-07T03:18:24.455Z,99575.72
2022-09-07T03:18:56.229Z,99573.00
2022-09-07T03:19:27.702Z,99571.38
2022-09-07T03:19:59.163Z,99566.72
2022-09-07T03:20:30.666Z,99570.25
2022-09-07T03:21:02.120Z,99578.47
2022-09-07T03:21:33.618Z,99569.09
2022-09-07T03:22:05.076Z,99571.38
2022-09-07T03:22:36.634Z,99576.50
2022-09-07T03:23:08.144Z,99575.38
2022-09-07T03:23:39.696Z,99578.13
2022-09-07T03:24:11.299Z,99581.22
2022-09-07T03:24:42.760Z,99573.75
2022-09-07T03:25:14.196Z,99571.03
2022-09-07T03:25:45.636Z,99578.47
2022-09-07T03:26:17.132Z,99577.66
2022-09-07T03:26:48.643Z,99577.66
2022-09-07T03:27:20.295Z,99574.91
2022-09-07T03:27:51.750Z,99574.56
2022-09-07T03:28:23.239Z,99580.06
2022-09-07T03:28:54.768Z,99577.00
2022-09-07T03:29:26.377Z,99575.38
2022-09-07T03:29:57.838Z,99574.56
2022-09-07T03:30:29.363Z,99576.84
2022-09-07T03:31:00.899Z,99576.84
2022-09-07T03:31:32.487Z,99579.59
2022-09-07T03:32:03.969Z,99585.88
2022-09-07T03:32:35.384Z,99584.72
2022-09-07T03:33:06.802Z,99587.13
2022-09-07T03:33:38.211Z,99580.06
2022-09-07T03:34:09.692Z,99586.34
2022-09-07T03:34:41.096Z,99586.34
2022-09-07T03:35:14.237Z,99582.47
2022-09-07T03:35:45.913Z,99584.09
2022-09-07T03:36:17.332Z,99579.41
2022-09-07T03:36:48.819Z,99587.63
2022-09-07T03:37:20.459Z,99585.69
2022-09-07T03:37:51.951Z,99586.50
2022-09-07T03:38:23.399Z,99582.97
2022-09-07T03:38:54.837Z,99592.78
2022-09-07T03:39:26.310Z,99584.91
2022-09-07T03:39:57.922Z,99584.91
2022-09-07T03:40:29.496Z,99590.38
2022-09-07T03:41:01.033Z,99584.91
2022-09-07T03:41:32.514Z,99587.63
2022-09-07T03:42:04.064Z,99587.63
2022-09-07T03:42:35.689Z,99586.81
2022-09-07T03:43:07.217Z,99593.09
2022-09-07T03:43:38.737Z,99595.84
2022-09-07T03:44:10.235Z,99589.88
2022-09-07T03:44:41.692Z,99589.88
2022-09-07T03:45:13.138Z,99591.00
2022-09-07T03:45:44.674Z,99588.25
2022-09-07T03:46:16.257Z,99591.00
2022-09-07T03:46:47.812Z,99590.19
2022-09-07T03:47:19.275Z,99594.91
2022-09-07T03:47:50.810Z,99594.41
2022-09-07T03:48:22.263Z,99596.03
2022-09-07T03:48:53.731Z,99588.13
2022-09-07T03:49:25.202Z,99587.31
2022-09-07T03:49:56.725Z,99590.38
2022-09-07T03:50:28.208Z,99584.56
2022-09-07T03:50:59.641Z,99587.31
2022-09-07T03:51:31.238Z,99590.84
2022-09-07T03:52:02.773Z,99591.66
2022-09-07T03:52:34.234Z,99590.84
2022-09-07T03:53:05.678Z,99588.94
2022-09-07T03:53:37.128Z,99587.00
2022-09-07T03:54:08.588Z,99588.13
2022-09-07T03:54:40.038Z,99595.53
2022-09-07T03:55:11.485Z,99591.34
2022-09-07T03:55:42.933Z,99596.81
2022-09-07T03:56:14.415Z,99594.91
2022-09-07T03:56:45.901Z,99591.00
2022-09-07T03:57:17.453Z,99596.47
2022-09-07T03:57:49.095Z,99596.47
2022-09-07T03:58:20.565Z,99592.94
2022-09-07T03:58:52.026Z,99589.41
2022-09-07T03:59:23.481Z,99591.00
2022-09-07T03:59:54.977Z,99592.94
2022-09-07T04:00:26.483Z,99588.25
2022-09-07T04:00:58.007Z,99589.06
2022-09-07T04:01:29.574Z,99595.34
2022-09-07T04:02:01.214Z,99593.44
2022-09-07T04:02:32.788Z,99594.22
2022-09-07T04:03:04.370Z,99593.09
2022-09-07T04:03:35.832Z,99590.38
2022-09-07T04:04:07.333Z,99593.09
2022-09-07T04:04:38.784Z,99588.25
2022-09-07T04:05:10.299Z,99587.47
2022-09-07T04:05:41.852Z,99585.53
2022-09-07T04:06:13.365Z,99593.44
2022-09-07T04:06:44.835Z,99587.13
2022-09-07T04:07:16.316Z,99595.34
2022-09-07T04:07:47.800Z,99578.94
2022-09-07T04:08:19.329Z,99585.22
2022-09-07T04:08:50.826Z,99580.53
2022-09-07T04:09:22.293Z,99583.28
2022-09-07T04:09:53.757Z,99583.28
2022-09-07T04:10:25.221Z,99583.28
2022-09-07T04:10:56.675Z,99579.41
2022-09-07T04:11:28.198Z,99583.28
2022-09-07T04:11:59.656Z,99583.28
2022-09-07T04:12:31.039Z,99584.91
2022-09-07T04:13:02.525Z,99573.13
2022-09-07T04:13:34.092Z,99577.47
2022-09-07T04:14:05.657Z,99576.69
2022-09-07T04:14:37.125Z,99575.88
2022-09-07T04:15:08.540Z,99575.06
2022-09-07T04:15:39.943Z,99573.44
2022-09-07T04:16:11.389Z,99570.72
2022-09-07T04:16:42.903Z,99569.09
2022-09-07T04:17:14.510Z,99571.03
2022-09-07T04:17:46.092Z,99569.09
2022-09-07T04:18:17.599Z,99570.25
2022-09-07T04:18:49.265Z,99577.97
2022-09-07T04:19:20.755Z,99575.25
2022-09-07T04:19:52.222Z,99572.00
2022-09-07T04:20:23.730Z,99570.41
2022-09-07T04:20:55.245Z,99571.50
2022-09-07T04:21:26.761Z,99564.44
2022-09-07T04:21:58.199Z,99566.34
2022-09-07T04:22:29.705Z,99565.56
2022-09-07T04:23:01.261Z,99567.16
2022-09-07T04:23:32.708Z,99565.88
2022-09-07T04:24:04.282Z,99565.56
2022-09-07T04:24:35.745Z,99570.53
2022-09-07T04:25:07.210Z,99572.47
2022-09-07T04:25:38.648Z,99570.03
2022-09-07T04:26:10.133Z,99561.84
2022-09-07T04:26:41.603Z,99572.47
2022-09-07T04:27:13.119Z,99565.38
2022-09-07T04:27:44.629Z,99567.00
2022-09-07T04:28:16.056Z,99566.19
2022-09-07T04:28:47.489Z,99570.84
2022-09-07T04:29:19.005Z,99567.00
2022-09-07T04:29:50.440Z,99566.19
2022-09-07T04:30:21.989Z,99566.19
2022-09-07T04:30:53.493Z,99570.03
2022-09-07T04:31:25.035Z,99573.59
2022-09-07T04:31:56.527Z,99570.03
2022-09-07T04:32:27.974Z,99571.66
2022-09-07T04:32:59.495Z,99570.03
2022-09-07T04:33:30.968Z,99568.44
2022-09-07T04:34:02.549Z,99568.91
2022-09-07T04:34:34.026Z,99570.84
2022-09-07T04:35:05.605Z,99569.72
2022-09-07T04:35:37.094Z,99568.13
2022-09-07T04:36:08.572Z,99573.59
2022-09-07T04:36:40.020Z,99564.56
2022-09-07T04:37:11.476Z,99570.03
2022-09-07T04:37:42.987Z,99571.97
2022-09-07T04:38:14.692Z,99564.06
2022-09-07T04:38:46.171Z,99569.25
2022-09-07T04:39:17.672Z,99572.28
2022-09-07T04:39:49.312Z,99567.94
2022-09-07T04:40:20.860Z,99568.75
2022-09-07T04:40:52.287Z,99570.69
2022-09-07T04:41:23.770Z,99576.66
2022-09-07T04:41:55.169Z,99567.94
2022-09-07T04:42:26.624Z,99573.72
2022-09-07T04:42:58.168Z,99573.72
2022-09-07T04:43:29.831Z,99572.94
2022-09-07T04:44:01.550Z,99576.47
2022-09-07T04:44:33.028Z,99581.13
2022-09-07T04:45:04.672Z,99570.50
2022-09-07T04:45:36.266Z,99574.03
2022-09-07T04:46:07.784Z,99569.88
2022-09-07T04:46:39.309Z,99578.88
2022-09-07T04:47:10.807Z,99577.75
2022-09-07T04:47:42.293Z,99574.22
2022-09-07T04:48:13.809Z,99569.56
2022-09-07T04:48:45.379Z,99575.84
2022-09-07T04:49:16.874Z,99575.84
2022-09-07T04:49:48.433Z,99571.47
2022-09-07T04:50:19.866Z,99574.72
2022-09-07T04:50:51.341Z,99576.66
2022-09-07T04:51:22.854Z,99583.25
2022-09-07T04:51:54.307Z,99581.63
2022-09-07T04:52:25.782Z,99587.09
2022-09-07T04:52:57.290Z,99581.94
2022-09-07T04:53:28.825Z,99582.75
2022-09-07T04:54:00.456Z,99585.50
2022-09-07T04:54:31.893Z,99589.34
2022-09-07T04:55:06.436Z,99592.56
2022-09-07T04:55:37.931Z,99590.16
2022-09-07T04:56:11.839Z,99589.66
2022-09-07T04:56:45.388Z,99594.34
2022-09-07T04:57:16.861Z,99593.53
2022-09-07T04:57:48.485Z,99595.44
2022-09-07T04:58:19.921Z,99595.44
2022-09-07T04:58:51.375Z,99599.00
2022-09-07T04:59:22.865Z,99595.78
2022-09-07T04:59:54.334Z,99603.97
2022-09-07T05:00:25.827Z,99595.44
2022-09-07T05:00:57.436Z,99594.34
2022-09-07T05:01:29.098Z,99598.69
2022-09-07T05:02:00.680Z,99592.09
2022-09-07T05:02:32.374Z,99599.97
2022-09-07T05:03:03.886Z,99596.94
2022-09-07T05:03:35.473Z,99599.66
2022-09-07T05:04:06.998Z,99611.13
2022-09-07T05:04:38.445Z,99599.34
2022-09-07T05:05:09.890Z,99604.50
2022-09-07T05:05:41.410Z,99603.72
2022-09-07T05:06:12.973Z,99602.59
2022-09-07T05:06:44.556Z,99595.97
2022-09-07T05:07:16.095Z,99610.47
2022-09-07T05:07:47.535Z,99601.16
2022-09-07T05:08:18.980Z,99598.91
2022-09-07T05:08:50.432Z,99605.50
2022-09-07T05:09:21.959Z,99601.16
2022-09-07T05:09:53.457Z,99609.03
2022-09-07T05:10:24.936Z,99603.56
2022-09-07T05:10:56.469Z,99610.97
2022-09-07T05:11:29.379Z,99605.50
2022-09-07T05:12:01.449Z,99611.78
2022-09-07T05:12:33.015Z,99610.97
2022-09-07T05:13:04.484Z,99610.16
2022-09-07T05:13:35.952Z,99610.16
2022-09-07T05:14:07.411Z,99608.25
2022-09-07T05:14:38.935Z,99613.72
2022-09-07T05:15:10.347Z,99611.47
2022-09-07T05:15:41.816Z,99612.09
2022-09-07T05:16:13.423Z,99613.72
2022-09-07T05:16:45.027Z,99607.13
2022-09-07T05:17:16.569Z,99611.47
2022-09-07T05:17:48.020Z,99601.63
2022-09-07T05:18:19.599Z,99605.50
2022-09-07T05:18:51.035Z,99604.38
2022-09-07T05:19:22.469Z,99605.50
2022-09-07T05:19:53.942Z,99604.69
2022-09-07T05:20:25.514Z,99605.00
2022-09-07T05:20:56.970Z,99606.94
2022-09-07T05:21:28.421Z,99597.44
2022-09-07T05:21:59.910Z,99602.91
2022-09-07T05:22:31.406Z,99596.31
2022-09-07T05:23:02.929Z,99605.31
2022-09-07T05:23:34.421Z,99601.47
2022-09-07T05:24:05.951Z,99606.44
2022-09-07T05:24:37.389Z,99609.19
2022-09-07T05:25:08.928Z,99604.50
2022-09-07T05:25:40.389Z,99603.72
2022-09-07T05:26:11.899Z,99604.50
2022-09-07T05:26:43.345Z,99605.31
2022-09-07T05:27:14.870Z,99602.09
2022-09-07T05:27:46.273Z,99603.72
2022-09-07T05:28:19.576Z,99606.44
2022-09-07T05:28:51.320Z,99597.09
2022-09-07T05:31:21.039Z,99605.81
2022-09-07T05:31:52.541Z,99607.75
2022-09-07T05:32:24.207Z,99607.44
2022-09-07T05:32:55.663Z,99606.94
2022-09-07T05:34:33.986Z,99603.06
2022-09-07T05:35:05.489Z,99606.63
2022-09-07T05:35:37.006Z,99610.47
2022-09-07T05:36:08.445Z,99609.34
2022-09-07T05:36:39.947Z,99606.94
2022-09-07T05:37:11.431Z,99611.59
2022-09-07T05:37:42.941Z,99610.47
2022-09-07T05:38:14.432Z,99606.13
2022-09-07T05:38:45.839Z,99599.03
2022-09-07T05:39:17.273Z,99612.72
2022-09-07T05:39:49.046Z,99614.66
2022-09-07T05:40:20.580Z,99619.00
2022-09-07T05:40:52.083Z,99613.53
2022-09-07T05:41:23.539Z,99619.50
2022-09-07T05:41:54.989Z,99616.28
2022-09-07T05:42:26.473Z,99619.50
2022-09-07T05:42:57.996Z,99614.84
2022-09-07T05:43:29.507Z,99620.31
2022-09-07T05:44:52.418Z,99623.84
2022-09-07T05:45:23.908Z,99621.13
2022-09-07T05:45:55.496Z,99623.53
2022-09-07T05:46:26.968Z,99622.72
2022-09-07T05:46:58.517Z,99620.81
2022-09-07T05:47:29.994Z,99619.69
2022-09-07T05:48:01.635Z,99611.78
2022-09-07T05:48:33.191Z,99624.66
2022-09-07T05:49:04.673Z,99621.63
2022-09-07T05:49:36.154Z,99616.44
2022-09-07T05:50:07.627Z,99612.91
2022-09-07T05:50:39.107Z,99621.94
2022-09-07T05:51:10.524Z,99623.53
2022-09-07T05:51:41.967Z,99624.34
2022-09-07T05:52:13.434Z,99617.25
2022-09-07T05:52:44.985Z,99619.69
2022-09-07T05:53:16.655Z,99619.69
2022-09-07T05:53:48.145Z,99623.22
2022-09-07T05:54:19.591Z,99620.50
2022-09-07T05:54:54.262Z,99621.28
2022-09-07T05:55:30.341Z,99622.09
2022-09-07T05:56:06.899Z,99625.66
2022-09-07T05:56:38.639Z,99624.53
2022-09-07T05:57:10.079Z,99619.06
2022-09-07T05:57:41.535Z,99622.59
2022-09-07T05:58:13.039Z,99623.72
2022-09-07T05:58:44.589Z,99616.63
2022-09-07T05:59:16.079Z,99617.44
2022-09-07T05:59:47.673Z,99631.13
2022-09-07T06:00:19.177Z,99623.41
2022-09-07T06:00:50.669Z,99627.25
2022-09-07T06:01:22.101Z,99624.53
2022-09-07T06:01:53.655Z,99625.66
2022-09-07T06:02:25.427Z,99624.53
2022-09-07T06:02:57.109Z,99624.53
2022-09-07T06:03:28.735Z,99626.47
2022-09-07T06:04:00.413Z,99628.38
2022-09-07T06:04:31.823Z,99630.81
2022-09-07T06:05:03.273Z,99625.34
2022-09-07T06:05:37.372Z,99624.53
2022-09-07T06:06:08.878Z,99630.81
2022-09-07T06:06:40.377Z,99631.13
2022-09-07T06:07:21.490Z,99629.50
2022-09-07T06:07:53.381Z,99629.50
2022-09-07T06:08:24.903Z,99637.72
2022-09-07T06:08:56.415Z,99634.19
2022-09-07T06:09:30.560Z,99632.25
2022-09-07T06:10:53.721Z,99634.19
2022-09-07T06:11:25.235Z,99633.06
2022-09-07T06:11:56.669Z,99632.25
2022-09-07T06:12:28.148Z,99627.59
2022-09-07T06:12:59.668Z,99636.91
2022-09-07T06:13:31.250Z,99634.50
2022-09-07T06:14:02.850Z,99627.09
2022-09-07T06:14:34.381Z,99629.03
2022-09-07T06:15:05.947Z,99634.19
2022-09-07T06:15:37.443Z,99630.63